Time;durP1;ratioP1;P1;durP2;ratioP2;P2;SDS_P1;SDS_P2;PMS_P1;PMS_P2;Temp;Humidity;BMP_temperature;BMP_pressure;BME280_temperature;BME280_humidity;BME280_pressure;Samples;Min_cycle;Max_cycle;Signal;HPM_P1;HPM_P2
2022/04/02 00:01:17;;;;;;;6.30;2.03;;;;;;;12.77;95.30;96587.84;4943212;29;20220;-65
2022/04/02 00:03:43;;;;;;;9.88;2.28;;;;;;;12.83;95.14;96599.38;4951022;28;20261;-65
2022/04/02 00:06:08;;;;;;;9.18;1.98;;;;;;;12.79;93.20;96595.47;4951485;29;20592;-65
2022/04/02 00:08:36;;;;;;;8.27;2.20;;;;;;;12.96;91.97;96607.50;4951496;29;20199;-65
2022/04/02 00:11:03;;;;;;;7.38;2.33;;;;;;;12.99;90.05;96607.16;4951191;29;20196;-65
2022/04/02 00:13:30;;;;;;;4.65;2.03;;;;;;;12.95;89.20;96611.88;4951319;29;20248;-65
2022/04/02 00:15:57;;;;;;;7.43;2.60;;;;;;;13.09;87.79;96618.19;4951130;29;20195;-65
2022/04/02 00:18:22;;;;;;;7.47;2.15;;;;;;;13.31;76.81;96607.91;4940726;29;20671;-65
2022/04/02 00:20:48;;;;;;;10.07;2.20;;;;;;;13.24;78.50;96617.34;4941057;29;20196;-67
2022/04/02 00:25:58;;;;;;;7.15;1.90;;;;;;;13.45;80.78;96614.22;4951380;29;20215;-65
2022/04/02 00:28:23;;;;;;;5.53;1.90;;;;;;;13.44;82.06;96617.81;4950523;28;20212;-65
2022/04/02 00:30:49;;;;;;;8.30;1.70;;;;;;;13.62;79.55;96627.03;4950952;29;20193;-65
2022/04/02 00:33:14;;;;;;;4.50;2.30;;;;;;;13.66;79.38;96623.09;4950613;29;20177;-65
2022/04/02 00:35:40;;;;;;;7.10;2.15;;;;;;;13.71;82.50;96610.41;4950824;29;20185;-65
2022/04/02 00:38:06;;;;;;;8.05;2.58;;;;;;;13.63;82.86;96607.03;4946346;29;20259;-65
2022/04/02 00:40:31;;;;;;;6.68;1.60;;;;;;;13.61;83.19;96589.03;4939580;29;20602;-65
2022/04/02 00:42:57;;;;;;;10.38;2.33;;;;;;;13.68;80.48;96589.16;4941660;29;20205;-65
2022/04/02 00:45:22;;;;;;;6.28;2.05;;;;;;;13.79;78.29;96586.19;4949816;29;20655;-65
2022/04/02 00:47:47;;;;;;;3.88;1.80;;;;;;;13.68;80.41;96582.19;4950909;29;20742;-65
2022/04/02 00:50:13;;;;;;;5.85;2.00;;;;;;;13.64;81.18;96595.69;4950489;29;20204;-65
2022/04/02 00:52:39;;;;;;;4.70;1.90;;;;;;;13.63;80.53;96594.03;4950553;29;20181;-65
2022/04/02 00:55:05;;;;;;;4.57;1.90;;;;;;;13.68;80.52;96581.34;4950519;29;20181;-65
2022/04/02 00:57:31;;;;;;;7.90;1.80;;;;;;;13.69;81.13;96585.56;4950412;29;20248;-65
2022/04/02 00:59:57;;;;;;;5.80;1.83;;;;;;;13.56;79.54;96585.28;4941932;29;20202;-65
2022/04/02 01:02:22;;;;;;;3.22;1.73;;;;;;;13.71;77.56;96583.63;4940073;29;20506;-65
2022/04/02 01:04:48;;;;;;;6.57;1.83;;;;;;;13.74;76.89;96578.91;4943806;28;20233;-65
2022/04/02 01:07:17;;;;;;;8.23;1.90;;;;;;;13.76;74.46;96578.75;4950417;29;20185;-65
2022/04/02 01:09:43;;;;;;;8.52;1.83;;;;;;;13.69;78.33;96580.38;4949865;29;20208;-67
2022/04/02 01:12:08;;;;;;;4.55;1.80;;;;;;;13.85;75.62;96582.91;4950133;29;20180;-65
2022/04/02 01:14:34;;;;;;;5.53;1.55;;;;;;;13.90;73.86;96581.44;4950172;29;20181;-65
2022/04/02 01:17:01;;;;;;;5.88;1.98;;;;;;;13.99;75.89;96577.00;4950035;29;20189;-65
2022/04/02 01:19:28;;;;;;;5.13;1.42;;;;;;;13.99;72.72;96566.59;4949637;29;20195;-65
2022/04/02 01:21:54;;;;;;;4.05;1.30;;;;;;;14.03;71.96;96578.25;4938471;29;20188;-65
2022/04/02 01:24:20;;;;;;;3.50;1.90;;;;;;;14.28;63.02;96585.78;4940252;29;20283;-67
2022/04/02 01:26:45;;;;;;;4.35;1.80;;;;;;;14.40;61.42;96581.81;4946877;29;20315;-65
2022/04/02 01:29:11;;;;;;;3.90;1.88;;;;;;;14.24;69.55;96587.09;4949708;29;20756;-65
2022/04/02 01:31:36;;;;;;;4.63;1.50;;;;;;;14.36;63.86;96590.16;4949842;29;20184;-65
2022/04/02 01:34:02;;;;;;;5.47;1.70;;;;;;;14.42;67.06;96595.47;4932246;29;20695;-65
2022/04/02 01:36:28;;;;;;;5.90;1.95;;;;;;;14.42;68.23;96615.47;4949566;29;20272;-65
2022/04/02 01:38:53;;;;;;;8.10;1.95;;;;;;;14.41;70.16;96612.03;4949622;29;20177;-65
2022/04/02 01:41:20;;;;;;;9.30;1.80;;;;;;;14.37;70.57;96621.19;4944506;28;20560;-65
2022/04/02 01:43:48;;;;;;;6.38;1.88;;;;;;;14.19;72.82;96619.84;4938900;29;20247;-65
2022/04/02 01:46:14;;;;;;;5.32;1.58;;;;;;;14.01;72.97;96611.44;4940972;29;20184;-65
2022/04/02 01:48:39;;;;;;;1.98;1.55;;;;;;;13.94;74.14;96618.31;4949275;29;20651;-65
2022/04/02 01:51:05;;;;;;;6.72;1.33;;;;;;;13.90;74.94;96614.41;4949447;29;20189;-65
2022/04/02 01:53:32;;;;;;;5.35;1.77;;;;;;;13.70;75.95;96611.38;4949286;29;20200;-65
2022/04/02 01:55:58;;;;;;;9.18;2.58;;;;;;;13.76;76.07;96612.53;4949348;29;20193;-65
2022/04/02 01:58:24;;;;;;;6.38;1.85;;;;;;;13.62;78.24;96601.03;4949531;29;20188;-67
2022/04/02 02:00:49;;;;;;;5.75;2.13;;;;;;;13.58;77.50;96615.34;4949295;29;20185;-65
2022/04/02 02:03:15;;;;;;;5.75;2.83;;;;;;;13.55;78.98;96607.06;4938993;28;20236;-65
2022/04/02 02:05:41;;;;;;;7.95;3.13;;;;;;;13.66;77.34;96611.91;4938900;29;20203;-67
2022/04/02 02:08:07;;;;;;;6.93;3.17;;;;;;;13.68;77.74;96612.53;4944292;29;20185;-67
2022/04/02 02:10:33;;;;;;;6.03;2.13;;;;;;;13.75;70.03;96624.69;4949032;29;20208;-67
2022/04/02 02:12:59;;;;;;;4.25;1.48;;;;;;;13.87;67.26;96622.53;4949371;29;20279;-66
2022/04/02 02:15:27;;;;;;;7.15;2.00;;;;;;;13.58;71.17;96619.72;4949079;29;20793;-65
2022/04/02 02:17:53;;;;;;;3.90;1.23;;;;;;;13.55;70.09;96613.09;4949059;29;20203;-67
2022/04/02 02:20:19;;;;;;;3.03;1.42;;;;;;;13.54;66.87;96608.03;4949182;29;20188;-65
2022/04/02 02:22:46;;;;;;;7.18;1.35;;;;;;;13.82;59.69;96612.66;4947316;29;20683;-65
2022/04/02 02:25:15;;;;;;;3.45;1.13;;;;;;;13.79;62.89;96612.19;4937374;29;20185;-65
2022/04/02 02:27:43;;;;;;;3.55;1.23;;;;;;;14.02;59.48;96613.88;4939381;29;20228;-65
2022/04/02 02:30:10;;;;;;;3.25;0.93;;;;;;;14.00;61.72;96612.44;4946819;29;20205;-65
2022/04/02 02:32:39;;;;;;;3.53;1.20;;;;;;;14.14;58.03;96601.28;4948871;29;20189;-65
2022/04/02 02:38:12;;;;;;;1.83;1.35;;;;;;;14.68;55.31;96634.16;4949125;29;20243;-66
2022/04/02 02:40:39;;;;;;;2.20;1.20;;;;;;;14.76;57.62;96639.31;4948222;29;20577;-65
2022/04/02 02:43:06;;;;;;;2.20;0.90;;;;;;;14.78;58.24;96642.56;4931330;29;20193;-65
2022/04/02 02:45:32;;;;;;;3.03;1.33;;;;;;;14.77;58.81;96618.34;4938402;29;20193;-67
2022/04/02 02:47:58;;;;;;;4.95;1.55;;;;;;;14.76;58.37;96634.91;4938425;29;20259;-65
2022/04/02 02:50:25;;;;;;;3.38;1.60;;;;;;;14.72;57.59;96645.84;4943914;29;20223;-65
2022/04/02 02:52:50;;;;;;;2.53;1.35;;;;;;;14.76;57.89;96647.94;4948586;29;20193;-65
2022/04/02 02:55:16;;;;;;;4.93;1.50;;;;;;;14.80;56.60;96664.00;4948665;29;20192;-65
2022/04/02 02:57:44;;;;;;;3.47;1.17;;;;;;;14.78;54.96;96655.56;4948202;29;20237;-65
2022/04/02 03:00:11;;;;;;;3.72;0.95;;;;;;;14.71;54.97;96654.66;4948587;29;20184;-65
2022/04/02 03:02:40;;;;;;;3.13;0.90;;;;;;;14.77;56.30;96654.78;4948458;28;20716;-65
2022/04/02 03:05:10;;;;;;;1.27;0.82;;;;;;;14.76;55.39;96662.75;4945674;29;20196;-65
2022/04/02 03:07:37;;;;;;;2.45;1.30;;;;;;;14.59;57.35;96669.03;4937083;29;20702;-66
2022/04/02 03:10:03;;;;;;;2.65;0.90;;;;;;;14.48;59.39;96664.22;4939277;29;20200;-65
2022/04/02 03:12:29;;;;;;;3.15;1.10;;;;;;;14.36;61.30;96673.41;4947677;29;20240;-65
2022/04/02 03:14:54;;;;;;;2.38;1.08;;;;;;;14.24;61.98;96674.75;4948364;29;20185;-65
2022/04/02 03:17:20;;;;;;;1.20;0.73;;;;;;;14.23;62.99;96673.16;4948621;29;20191;-65
2022/04/02 03:19:46;;;;;;;2.42;1.00;;;;;;;14.12;64.19;96682.06;4948370;29;20178;-67
2022/04/02 03:22:12;;;;;;;5.28;1.10;;;;;;;14.16;65.31;96687.75;4948341;29;20185;-65
2022/04/02 03:24:37;;;;;;;9.32;2.28;;;;;;;14.12;66.94;96689.09;4931010;29;20738;-65
2022/04/02 03:27:04;;;;;;;6.68;2.20;;;;;;;14.14;68.79;96705.31;4940668;29;20185;-65
2022/04/02 03:29:30;;;;;;;4.18;2.58;;;;;;;14.03;72.03;96723.88;4938326;29;20204;-65
2022/04/02 03:31:55;;;;;;;4.95;2.35;;;;;;;13.95;75.02;96721.31;4941266;29;20693;-65
2022/04/02 03:34:21;;;;;;;5.40;2.72;;;;;;;13.85;78.74;96731.09;4948047;29;20695;-65
2022/04/02 03:36:46;;;;;;;7.47;2.70;;;;;;;13.80;77.72;96739.38;4948645;29;20189;-65
2022/04/02 03:39:12;;;;;;;7.18;3.28;;;;;;;13.75;78.56;96740.84;4948247;29;20192;-65
2022/04/02 03:41:37;;;;;;;7.80;2.67;;;;;;;13.57;79.69;96746.22;4948173;29;20188;-65
2022/04/02 03:44:03;;;;;;;6.65;2.65;;;;;;;13.57;79.27;96740.22;4948238;29;20589;-65
2022/04/02 03:49:30;;;;;;;5.65;2.58;;;;;;;13.49;80.17;96746.25;4858532;29;20680;-65
2022/04/02 03:51:55;;;;;;;9.30;2.60;;;;;;;13.29;80.46;96744.16;4922211;29;20205;-65
2022/04/02 03:54:21;;;;;;;5.20;1.67;;;;;;;13.06;81.31;96732.78;4946162;29;20224;-65
2022/04/02 03:56:47;;;;;;;5.18;2.30;;;;;;;13.03;80.52;96735.66;4948262;29;20185;-66
2022/04/02 03:59:12;;;;;;;3.20;2.42;;;;;;;12.86;80.28;96728.81;4947617;29;20180;-65
2022/04/02 04:01:39;;;;;;;4.18;1.80;;;;;;;12.90;79.42;96737.91;4948001;29;20189;-65
2022/04/02 04:04:04;;;;;;;4.13;2.03;;;;;;;12.92;79.34;96735.94;4948397;28;20213;-65
2022/04/02 04:06:31;;;;;;;2.53;2.08;;;;;;;12.92;79.26;96746.31;4951502;29;20185;-65
2022/04/02 04:08:58;;;;;;;3.97;2.20;;;;;;;12.96;77.84;96756.25;4944304;29;20275;-65
2022/04/02 04:11:25;;;;;;;5.55;1.60;;;;;;;12.96;78.55;96753.66;4940631;29;20193;-65
2022/04/02 04:13:51;;;;;;;1.98;1.70;;;;;;;13.01;77.40;96766.97;4943953;29;20192;-65
2022/04/02 04:16:16;;;;;;;5.20;1.73;;;;;;;12.86;77.45;96783.31;4951278;29;20184;-65
2022/04/02 04:18:42;;;;;;;4.78;2.00;;;;;;;12.92;76.76;96799.06;4951195;29;20177;-65
2022/04/02 04:21:07;;;;;;;3.47;2.08;;;;;;;13.01;76.25;96802.53;4950913;29;20240;-65
2022/04/02 04:23:34;;;;;;;3.55;2.20;;;;;;;13.08;76.04;96799.13;4951232;29;20189;-65
2022/04/02 04:26:00;;;;;;;9.05;3.67;;;;;;;13.17;76.89;96792.97;4951029;29;20720;-64
2022/04/02 04:28:26;;;;;;;8.40;3.25;;;;;;;13.12;78.80;96808.22;4950851;29;20208;-65
2022/04/02 04:30:51;;;;;;;6.55;2.95;;;;;;;13.19;79.03;96811.78;4939988;29;20339;-66
2022/04/02 04:33:17;;;;;;;7.15;3.28;;;;;;;13.27;79.80;96818.78;4940865;29;20200;-66
2022/04/02 04:35:42;;;;;;;7.20;3.80;;;;;;;13.28;79.81;96823.00;4946709;29;20208;-66
2022/04/02 04:38:08;;;;;;;10.15;4.47;;;;;;;13.13;80.89;96827.22;4950753;29;20678;-65
2022/04/02 04:40:33;;;;;;;17.70;7.38;;;;;;;13.13;81.38;96827.22;4950661;29;20575;-65
2022/04/02 04:42:59;;;;;;;10.88;4.95;;;;;;;13.15;81.67;96820.06;4950753;29;20185;-65
2022/04/02 04:45:24;;;;;;;8.65;4.30;;;;;;;12.94;83.79;96822.25;4950698;29;20195;-65
2022/04/02 04:47:50;;;;;;;6.80;4.13;;;;;;;12.97;83.80;96824.56;4950932;29;20305;-65
2022/04/02 04:50:15;;;;;;;10.73;4.32;;;;;;;12.96;84.86;96821.16;4946744;29;20595;-64
2022/04/02 04:52:40;;;;;;;8.98;4.55;;;;;;;13.11;84.85;96822.19;4939848;29;20636;-66
2022/04/02 04:55:06;;;;;;;13.98;5.03;;;;;;;13.21;84.17;96829.81;4941557;29;20378;-66
2022/04/02 04:57:32;;;;;;;12.57;6.88;;;;;;;13.37;83.31;96829.84;4949262;29;20302;-66
2022/04/02 04:59:57;;;;;;;16.52;6.75;;;;;;;13.48;82.26;96837.34;4949940;29;20177;-65
2022/04/02 05:02:23;;;;;;;19.00;6.35;;;;;;;13.51;82.08;96837.84;4950825;29;20647;-64
2022/04/02 05:04:49;;;;;;;10.90;6.03;;;;;;;13.58;82.62;96830.19;4950209;28;20217;-65
2022/04/02 05:07:17;;;;;;;13.27;7.00;;;;;;;13.41;83.98;96833.78;4950345;29;20193;-65
2022/04/02 05:09:45;;;;;;;18.60;6.45;;;;;;;13.09;85.94;96828.50;4950147;29;20197;-65
2022/04/02 05:12:12;;;;;;;14.50;5.65;;;;;;;13.06;85.25;96800.28;4942386;29;20216;-65
2022/04/02 05:14:37;;;;;;;12.82;5.47;;;;;;;13.25;84.93;96815.56;4939605;28;20181;-65
2022/04/02 05:17:03;;;;;;;11.68;5.20;;;;;;;13.31;85.17;96835.69;4943130;29;20184;-65
2022/04/02 05:19:29;;;;;;;10.43;4.57;;;;;;;13.48;81.86;96848.53;4949659;29;20193;-65
2022/04/02 05:21:54;;;;;;;15.00;8.88;;;;;;;13.59;82.08;96845.63;4949879;29;20280;-65
2022/04/02 05:24:20;;;;;;;13.05;6.68;;;;;;;13.72;81.66;96847.75;4950070;29;20181;-65
2022/04/02 05:26:47;;;;;;;11.18;5.47;;;;;;;13.84;81.78;96849.88;4950098;29;20574;-66
2022/04/02 05:29:13;;;;;;;16.90;6.10;;;;;;;13.92;81.53;96846.44;4949812;29;20312;-65
2022/04/02 05:31:40;;;;;;;10.82;5.35;;;;;;;13.96;80.58;96853.75;4950081;29;20801;-65
2022/04/02 05:34:06;;;;;;;18.55;5.35;;;;;;;14.08;79.38;96847.25;4937976;29;20220;-65
2022/04/02 05:36:33;;;;;;;11.48;4.88;;;;;;;14.19;78.96;96851.31;4940215;29;20300;-65
2022/04/02 05:38:58;;;;;;;9.95;4.25;;;;;;;14.35;77.93;96862.50;4946077;29;20189;-65
2022/04/02 05:41:24;;;;;;;11.80;4.60;;;;;;;14.47;76.77;96861.19;4949440;29;20216;-65
2022/04/02 05:43:50;;;;;;;10.63;4.50;;;;;;;14.56;76.15;96854.16;4949595;29;20240;-65
2022/04/02 05:46:16;;;;;;;7.50;4.38;;;;;;;14.72;75.14;96867.13;4949747;29;20192;-66
2022/04/02 05:48:42;;;;;;;8.93;3.78;;;;;;;14.83;73.97;96853.75;4949275;29;20207;-65
2022/04/02 05:51:09;;;;;;;6.68;3.28;;;;;;;14.92;72.49;96853.53;4949381;29;20216;-65
2022/04/02 05:53:34;;;;;;;8.23;3.60;;;;;;;15.05;71.86;96851.19;4944834;29;20196;-65
2022/04/02 05:56:01;;;;;;;5.90;3.10;;;;;;;15.18;71.04;96858.47;4938550;29;20595;-66
2022/04/02 05:58:27;;;;;;;8.18;3.38;;;;;;;15.32;69.93;96852.50;4940303;29;20652;-66
2022/04/02 06:00:53;;;;;;;5.20;2.33;;;;;;;15.47;64.49;96859.47;4948897;29;20185;-66
2022/04/02 06:03:20;;;;;;;4.97;2.80;;;;;;;15.49;65.49;96852.28;4948716;28;20777;-64
2022/04/02 06:05:46;;;;;;;7.78;2.17;;;;;;;15.62;65.58;96867.38;4949362;29;20196;-66
2022/04/02 06:08:12;;;;;;;8.50;2.63;;;;;;;15.69;64.11;96853.44;4949565;29;20200;-65
2022/04/02 06:10:37;;;;;;;4.25;2.40;;;;;;;15.77;62.86;96850.78;4949039;29;20205;-66
2022/04/02 06:13:04;;;;;;;8.15;2.63;;;;;;;15.88;62.28;96857.38;4949198;29;20211;-66
2022/04/02 06:15:30;;;;;;;5.47;3.03;;;;;;;15.97;62.21;96867.56;4940153;29;20196;-66
2022/04/02 06:17:55;;;;;;;9.35;2.53;;;;;;;16.09;61.86;96876.59;4938876;29;20206;-65
2022/04/02 06:20:21;;;;;;;6.10;2.10;;;;;;;16.22;60.13;96882.03;4943073;29;20189;-65
2022/04/02 06:22:46;;;;;;;5.82;3.28;;;;;;;16.36;59.37;96877.81;4948907;29;20184;-66
2022/04/02 06:25:12;;;;;;;12.98;3.35;;;;;;;16.46;58.95;96870.59;4948888;29;20193;-65
2022/04/02 06:27:44;;;;;;;11.43;2.70;;;;;;;16.57;58.26;96868.31;4948392;28;20185;-65
2022/04/02 06:30:12;;;;;;;13.63;3.38;;;;;;;16.75;61.78;96865.38;4948881;29;20597;-65
2022/04/02 06:32:38;;;;;;;11.73;3.75;;;;;;;16.80;64.61;96878.72;4948764;29;20272;-66
2022/04/02 06:35:04;;;;;;;7.80;3.15;;;;;;;16.92;66.86;96885.88;4947455;29;20216;-66
2022/04/02 06:37:34;;;;;;;8.18;3.20;;;;;;;16.99;68.01;96886.81;4937108;29;20776;-65
2022/04/02 06:40:00;;;;;;;5.80;2.53;;;;;;;17.05;68.82;96874.81;4939265;29;20612;-66
2022/04/02 06:42:26;;;;;;;10.30;3.13;;;;;;;17.01;69.01;96884.00;4946360;29;20192;-66
2022/04/02 06:44:51;;;;;;;6.43;3.05;;;;;;;16.83;69.31;96886.16;4948841;29;20662;-65
2022/04/02 06:47:17;;;;;;;10.50;3.50;;;;;;;16.92;68.67;96874.66;4948673;29;20176;-66
2022/04/02 06:49:42;;;;;;;9.25;3.13;;;;;;;16.94;67.42;96864.81;4948270;29;20197;-66
2022/04/02 06:52:07;;;;;;;6.35;3.33;;;;;;;16.97;67.89;96867.09;4948740;29;20552;-66
2022/04/02 06:54:33;;;;;;;16.70;4.60;;;;;;;17.12;67.45;96892.19;4948660;29;20275;-66
2022/04/02 06:56:59;;;;;;;12.13;4.00;;;;;;;17.08;68.07;96879.69;4942699;29;20616;-65
2022/04/02 06:59:24;;;;;;;10.00;3.88;;;;;;;17.16;67.91;96883.00;4938143;29;20647;-65
2022/04/02 07:01:50;;;;;;;7.78;3.88;;;;;;;17.25;68.17;96894.19;4940040;29;20184;-66
2022/04/02 07:04:16;;;;;;;10.27;4.40;;;;;;;17.22;67.82;96881.47;4926125;29;20212;-67
2022/04/02 07:06:44;;;;;;;9.45;3.90;;;;;;;17.40;66.13;96901.03;4948539;29;20195;-66
2022/04/02 07:09:11;;;;;;;7.28;2.97;;;;;;;17.38;62.28;96899.59;4931207;29;20208;-65
2022/04/02 07:11:37;;;;;;;8.18;3.33;;;;;;;17.41;62.18;96899.19;4948711;29;20196;-65
2022/04/02 07:14:02;;;;;;;7.88;3.05;;;;;;;17.34;61.90;96900.91;4948458;29;20248;-65
2022/04/02 07:16:30;;;;;;;13.02;3.40;;;;;;;17.12;61.86;96897.44;4948441;29;20180;-66
2022/04/02 07:18:59;;;;;;;7.53;3.20;;;;;;;17.08;62.83;96885.69;4937679;29;20216;-66
2022/04/02 07:21:27;;;;;;;7.57;3.17;;;;;;;17.01;61.96;96884.00;4938139;29;20208;-66
2022/04/02 07:23:53;;;;;;;4.32;2.92;;;;;;;17.11;61.24;96890.59;4926936;29;20240;-66
2022/04/02 07:26:19;;;;;;;7.53;2.47;;;;;;;17.09;59.35;96889.94;4948557;29;20199;-66
2022/04/02 07:28:45;;;;;;;6.05;2.20;;;;;;;17.32;58.71;96895.06;4948521;29;20655;-64
2022/04/02 07:31:10;;;;;;;5.03;2.10;;;;;;;17.46;57.76;96894.22;4948276;29;20192;-65
2022/04/02 07:33:36;;;;;;;10.15;2.22;;;;;;;17.64;57.37;96897.25;4948035;29;20239;-66
2022/04/02 07:36:09;;;;;;;5.22;1.80;;;;;;;17.81;55.81;96904.69;4948309;29;20247;-66
2022/04/02 07:38:44;;;;;;;3.40;1.92;;;;;;;17.98;54.36;96910.47;4945816;28;20291;-64
2022/04/02 07:41:20;;;;;;;8.98;2.53;;;;;;;18.05;55.12;96904.31;4941083;29;20749;-66
2022/04/02 07:44:01;;;;;;;5.93;2.35;;;;;;;18.20;55.31;96909.47;4943296;29;20287;-66
2022/04/02 07:46:29;;;;;;;7.57;2.60;;;;;;;18.39;53.89;96909.69;4951955;29;20219;-66
2022/04/02 07:48:57;;;;;;;8.30;2.47;;;;;;;18.45;53.28;96918.56;4951645;29;20185;-66
2022/04/02 07:51:26;;;;;;;5.85;2.30;;;;;;;18.40;53.50;96915.69;4951537;29;20223;-64
2022/04/02 07:53:55;;;;;;;3.25;2.10;;;;;;;18.55;53.54;96921.69;4951517;29;20196;-66
2022/04/02 07:56:37;;;;;;;4.35;1.80;;;;;;;18.46;52.89;96921.00;4951417;29;20196;-64
2022/04/02 07:59:18;;;;;;;6.00;2.20;;;;;;;18.64;52.89;96917.91;4919019;29;20621;-64
2022/04/02 08:01:44;;;;;;;4.63;2.05;;;;;;;18.88;50.35;96927.97;4940344;29;20299;-64
2022/04/02 08:04:12;;;;;;;2.60;1.60;;;;;;;18.90;49.76;96929.38;4942180;28;20519;-64
2022/04/02 08:06:39;;;;;;;3.72;1.63;;;;;;;18.90;48.90;96939.06;4949666;29;20184;-66
2022/04/02 08:09:07;;;;;;;4.82;1.70;;;;;;;19.05;47.31;96942.38;4951327;29;20232;-66
2022/04/02 08:11:37;;;;;;;6.85;5.10;;;;;;;19.23;46.64;96937.47;4951242;29;20184;-66
2022/04/02 08:14:02;;;;;;;2.95;1.60;;;;;;;19.38;45.93;96932.88;4951325;29;20184;-66
2022/04/02 08:16:28;;;;;;;1.83;1.33;;;;;;;19.50;46.10;96944.44;4951149;29;20227;-66
2022/04/02 08:18:56;;;;;;;3.72;1.73;;;;;;;19.66;45.91;96925.72;4951087;29;20192;-66
2022/04/02 08:21:21;;;;;;;2.33;1.58;;;;;;;19.71;45.75;96925.94;4943473;29;20199;-67
2022/04/02 08:23:47;;;;;;;3.10;1.45;;;;;;;19.76;45.50;96916.47;4940673;29;20193;-65
2022/04/02 08:26:19;;;;;;;4.28;1.67;;;;;;;19.78;44.89;96914.47;4944004;29;20251;-67
2022/04/02 08:29:16;;;;;;;5.03;1.50;;;;;;;19.88;44.90;96920.13;4926003;29;20199;-65
2022/04/02 08:32:30;;;;;;;4.25;2.22;;;;;;;19.96;46.45;96911.25;4951169;29;20196;-65
2022/04/02 08:35:03;;;;;;;3.35;1.50;;;;;;;19.98;45.74;96898.72;4950992;29;20172;-65
2022/04/02 08:37:43;;;;;;;4.07;1.67;;;;;;;19.79;45.82;96899.50;4950870;29;20207;-65
2022/04/02 08:40:11;;;;;;;2.65;1.60;;;;;;;19.80;46.21;96907.19;4950334;29;20165;-66
2022/04/02 08:43:15;;;;;;;5.22;1.67;;;;;;;19.92;46.77;96910.84;4925062;29;20192;-65
2022/04/02 08:46:08;;;;;;;6.53;2.00;;;;;;;20.13;45.46;96912.53;4923702;29;20210;-67
2022/04/02 08:48:35;;;;;;;4.05;1.88;;;;;;;20.02;45.74;96897.34;4948373;29;20251;-65
2022/04/02 08:51:41;;;;;;;4.68;1.80;;;;;;;20.18;45.35;96910.13;4950006;28;20207;-65
2022/04/02 08:54:22;;;;;;;6.30;1.60;;;;;;;20.28;45.12;96910.53;4950527;29;20307;-65
2022/04/02 08:56:49;;;;;;;2.47;1.80;;;;;;;20.34;44.46;96897.38;4950590;29;21066;-65
2022/04/02 08:59:33;;;;;;;10.05;3.90;;;;;;;20.46;44.53;96892.34;4950960;29;20181;-65
2022/04/02 09:02:21;;;;;;;4.78;2.40;;;;;;;20.42;44.20;96896.38;4949894;29;20204;-65
2022/04/02 09:04:56;;;;;;;11.45;4.90;;;;;;;20.49;44.20;96912.94;4939308;28;20212;-65
2022/04/02 09:07:59;;;;;;;15.88;8.70;;;;;;;20.45;45.06;96907.28;4941114;29;20399;-66
2022/04/02 09:10:37;;;;;;;8.70;2.67;;;;;;;20.39;45.17;96915.19;4915058;29;20238;-66
2022/04/02 09:13:25;;;;;;;12.80;3.72;;;;;;;20.32;46.39;96903.84;4950254;29;20194;-66
2022/04/02 09:16:02;;;;;;;4.15;1.90;;;;;;;20.24;45.80;96904.06;4936998;29;20209;-65
2022/04/02 09:18:56;;;;;;;6.18;3.08;;;;;;;20.09;46.07;96906.06;4949946;29;20736;-66
2022/04/02 09:21:29;;;;;;;22.58;11.70;;;;;;;19.79;46.61;96899.50;4949853;29;20184;-66
2022/04/02 09:24:22;;;;;;;9.65;4.75;;;;;;;19.54;46.32;96901.06;4945202;29;20216;-65
2022/04/02 09:27:32;;;;;;;18.92;11.27;;;;;;;19.35;47.07;96883.44;4922575;29;20188;-66
2022/04/02 09:30:03;;;;;;;4.35;2.42;;;;;;;19.25;46.99;96893.50;4925218;29;20274;-66
2022/04/02 09:32:52;;;;;;;4.20;2.53;;;;;;;19.41;46.81;96895.78;4950001;29;20259;-65
2022/04/02 09:35:34;;;;;;;6.15;2.40;;;;;;;19.65;46.30;96882.13;4950047;29;20230;-66
2022/04/02 09:38:26;;;;;;;2.50;2.30;;;;;;;19.85;45.79;96875.09;4949972;29;20239;-66
2022/04/02 09:40:58;;;;;;;4.72;2.13;;;;;;;19.98;45.11;96875.09;4949721;29;20749;-66
2022/04/02 09:43:37;;;;;;;3.20;2.38;;;;;;;20.01;44.96;96878.16;4932067;29;20663;-65
2022/04/02 09:46:21;;;;;;;5.15;2.28;;;;;;;20.10;44.68;96876.19;4939444;29;20270;-66
2022/04/02 09:49:23;;;;;;;5.45;2.10;;;;;;;20.13;44.31;96881.00;4939678;29;20293;-66
2022/04/02 09:52:01;;;;;;;2.42;1.60;;;;;;;20.14;44.03;96869.50;4897648;29;20253;-65
2022/04/02 09:54:45;;;;;;;3.53;1.80;;;;;;;20.20;44.06;96881.81;4949562;29;20184;-66
2022/04/02 09:57:26;;;;;;;5.47;1.90;;;;;;;20.26;44.38;96883.63;4949280;29;20228;-65
2022/04/02 10:00:10;;;;;;;2.85;1.80;;;;;;;20.32;44.91;96895.97;4949301;29;20649;-66
2022/04/02 10:03:04;;;;;;;1.52;1.23;;;;;;;20.34;44.00;96888.72;4948393;28;20195;-65
2022/04/02 10:06:04;;;;;;;5.63;1.70;;;;;;;20.32;44.13;96888.91;4947538;29;20499;-64
2022/04/02 10:08:53;;;;;;;3.65;1.85;;;;;;;20.30;44.70;96876.97;4938360;29;20510;-66
2022/04/02 10:11:24;;;;;;;3.38;2.08;;;;;;;20.37;45.15;96877.78;4941495;29;20678;-66
2022/04/02 10:13:56;;;;;;;4.78;2.22;;;;;;;20.43;44.34;96887.47;4949146;29;20197;-66
2022/04/02 10:16:23;;;;;;;4.32;1.83;;;;;;;20.49;44.28;96878.78;4949066;29;20400;-66
2022/04/02 10:18:53;;;;;;;2.10;1.90;;;;;;;20.53;44.97;96877.38;4948875;29;20192;-66
2022/04/02 10:21:20;;;;;;;1.55;1.25;;;;;;;20.56;43.16;96882.22;4948848;29;20629;-66
2022/04/02 10:23:51;;;;;;;1.98;1.50;;;;;;;20.45;43.30;96888.09;4948839;29;20192;-66
2022/04/02 10:26:18;;;;;;;2.28;1.33;;;;;;;20.39;42.96;96878.41;4948438;29;20708;-66
2022/04/02 10:29:02;;;;;;;9.00;3.50;;;;;;;20.56;42.72;96861.19;4937221;29;20299;-65
2022/04/02 10:31:33;;;;;;;2.53;2.13;;;;;;;20.77;42.66;96860.94;4939599;29;20192;-65
2022/04/02 10:34:09;;;;;;;2.45;1.63;;;;;;;20.76;40.67;96877.75;4946811;29;20741;-65
2022/04/02 10:36:39;;;;;;;4.60;2.78;;;;;;;20.77;40.88;96864.41;4948708;29;20187;-65
2022/04/02 10:39:07;;;;;;;4.22;2.70;;;;;;;20.90;41.52;96874.09;4948749;29;20686;-65
2022/04/02 10:41:38;;;;;;;20.20;8.02;;;;;;;20.98;40.54;96813.41;4948712;29;20709;-65
2022/04/02 10:44:09;;;;;;;5.57;2.10;;;;;;;21.23;39.87;96827.44;4948781;29;20183;-65
2022/04/02 10:46:39;;;;;;;5.22;1.63;;;;;;;21.59;38.51;96819.75;4948819;29;20212;-66
2022/04/02 10:49:07;;;;;;;2.03;1.30;;;;;;;21.78;37.82;96832.00;4938746;29;20184;-65
2022/04/02 10:51:40;;;;;;;2.92;1.70;;;;;;;21.99;37.84;96826.41;4938447;29;20215;-65
2022/04/02 10:54:08;;;;;;;4.55;1.40;;;;;;;21.99;37.45;96829.03;4943729;29;20184;-66
2022/04/02 10:56:35;;;;;;;5.70;2.00;;;;;;;21.93;37.48;96828.09;4948548;29;20191;-65
2022/04/02 10:59:01;;;;;;;3.78;1.40;;;;;;;22.06;37.20;96830.59;4948539;29;20212;-65
2022/04/02 11:01:27;;;;;;;4.63;1.40;;;;;;;22.17;36.81;96837.00;4948810;29;20258;-65
2022/04/02 11:03:57;;;;;;;2.67;1.60;;;;;;;22.50;36.87;96845.47;4948528;28;20769;-65
2022/04/02 11:06:57;;;;;;;3.60;1.17;;;;;;;22.37;36.47;96837.66;4948841;29;20180;-65
2022/04/02 11:09:36;;;;;;;3.65;1.45;;;;;;;22.52;36.19;96835.50;4874752;29;20231;-65
2022/04/02 11:12:06;;;;;;;3.00;1.23;;;;;;;22.69;35.75;96839.19;4937997;29;20414;-65
2022/04/02 11:14:41;;;;;;;1.95;1.35;;;;;;;22.74;35.82;96829.63;4943955;28;20190;-65
2022/04/02 11:17:07;;;;;;;2.05;1.40;;;;;;;23.04;35.14;96829.66;4952497;29;20198;-65
2022/04/02 11:22:29;;;;;;;2.53;1.52;;;;;;;23.46;34.21;96834.03;4952384;29;20633;-65
2022/04/02 11:24:54;;;;;;;3.15;1.50;;;;;;;23.71;34.09;96842.66;4952282;29;20270;-66
2022/04/02 11:27:24;;;;;;;2.10;1.13;;;;;;;23.79;32.34;96846.56;4952206;29;20804;-66
2022/04/02 11:29:51;;;;;;;2.35;1.30;;;;;;;23.83;32.17;96842.44;4949352;29;20211;-65
2022/04/02 11:32:25;;;;;;;1.85;1.23;;;;;;;24.05;31.44;96834.84;4940785;29;20211;-67
2022/04/02 11:34:52;;;;;;;2.95;1.25;;;;;;;24.24;31.53;96841.63;4943097;29;20172;-67
2022/04/02 11:37:23;;;;;;;0.82;0.82;;;;;;;24.44;30.02;96879.94;4950490;29;20274;-67
2022/04/02 11:39:51;;;;;;;1.13;0.60;;;;;;;24.38;25.61;96872.91;4951968;29;20180;-65
2022/04/02 11:42:21;;;;;;;0.50;0.50;;;;;;;24.53;25.15;96865.34;4952222;29;20189;-67
2022/04/02 11:44:54;;;;;;;1.60;0.57;;;;;;;24.81;25.33;96878.72;4952103;29;20181;-66
2022/04/02 11:47:28;;;;;;;0.40;0.40;;;;;;;24.55;24.87;96900.28;4919159;29;20233;-66
2022/04/02 11:50:01;;;;;;;0.30;0.30;;;;;;;24.56;25.89;96880.75;4951601;29;20208;-65
2022/04/02 11:52:27;;;;;;;0.47;0.30;;;;;;;24.61;25.69;96893.34;4941402;29;21022;-65
2022/04/02 11:54:52;;;;;;;0.45;0.40;;;;;;;24.72;25.43;96900.47;4941479;29;20181;-65